Time;durP1;ratioP1;P1;durP2;ratioP2;P2;SDS_P1;SDS_P2;PMS_P1;PMS_P2;Temp;Humidity;BMP_temperature;BMP_pressure;BME280_temperature;BME280_humidity;BME280_pressure;Samples;Min_cycle;Max_cycle;Signal;HPM_P1;HPM_P2
2023/01/19 00:01:25;;;;;;;8.32;4.15;;;3.30;99.90;;;;;;5022602;28;20053;-79
2023/01/19 00:03:51;;;;;;;7.93;3.70;;;3.30;99.90;;;;;;5036357;28;20041;-79
2023/01/19 00:06:17;;;;;;;8.23;3.50;;;3.30;99.90;;;;;;5018104;28;20083;-79
2023/01/19 00:08:44;;;;;;;6.50;3.55;;;3.20;99.90;;;;;;5051680;28;20505;-79
2023/01/19 00:11:11;;;;;;;7.47;3.38;;;4.50;99.90;;;;;;5032690;28;20095;-79
2023/01/19 00:13:38;;;;;;;7.00;3.10;;;3.20;99.90;;;;;;5035066;28;20049;-79
2023/01/19 00:16:05;;;;;;;5.80;2.75;;;3.20;99.90;;;;;;5036328;28;20045;-79
2023/01/19 00:18:30;;;;;;;6.05;3.00;;;3.30;99.90;;;;;;5037043;28;20041;-79
2023/01/19 00:20:56;;;;;;;6.45;2.92;;;3.30;99.90;;;;;;5036614;28;20493;-79
2023/01/19 00:23:22;;;;;;;6.05;3.45;;;3.20;99.90;;;;;;5037185;28;20175;-79
2023/01/19 00:25:49;;;;;;;4.85;3.13;;;4.20;99.90;;;;;;5030225;28;20540;-80
2023/01/19 00:28:17;;;;;;;7.03;2.50;;;3.20;99.90;;;;;;5002217;28;20092;-79
2023/01/19 00:30:43;;;;;;;5.50;2.75;;;3.20;99.90;;;;;;5017225;28;20076;-78
2023/01/19 00:33:10;;;;;;;6.70;2.88;;;3.20;99.90;;;;;;5033847;28;20037;-78
2023/01/19 00:35:35;;;;;;;4.55;2.85;;;3.20;99.90;;;;;;5035785;28;20079;-79
2023/01/19 00:38:02;;;;;;;6.82;3.33;;;3.10;99.90;;;;;;5026313;28;20060;-79
2023/01/19 00:40:27;;;;;;;5.43;2.80;;;3.20;99.90;;;;;;5036152;28;20392;-78
2023/01/19 00:42:53;;;;;;;4.90;2.92;;;3.10;99.90;;;;;;5022227;28;20124;-78
2023/01/19 00:45:21;;;;;;;5.35;3.00;;;3.00;99.90;;;;;;5034703;28;20056;-78
2023/01/19 00:47:53;;;;;;;9.52;3.50;;;3.10;99.90;;;;;;5001037;28;20116;-78
2023/01/19 00:50:19;;;;;;;6.07;3.08;;;4.20;99.90;;;;;;5033301;28;20050;-79
2023/01/19 00:52:45;;;;;;;7.57;3.65;;;3.20;99.90;;;;;;5032130;28;20120;-78
2023/01/19 00:55:13;;;;;;;7.28;3.28;;;3.20;99.90;;;;;;5033082;28;20080;-79
2023/01/19 00:57:39;;;;;;;6.03;3.42;;;3.10;99.90;;;;;;5020419;28;20056;-78
2023/01/19 01:00:10;;;;;;;8.82;3.50;;;3.20;99.90;;;;;;5020633;28;20547;-78
2023/01/19 01:02:39;;;;;;;6.90;3.45;;;3.10;99.90;;;;;;5019835;28;20564;-78
2023/01/19 01:05:09;;;;;;;6.72;2.75;;;3.20;99.90;;;;;;5036004;28;20040;-78
2023/01/19 01:07:43;;;;;;;7.82;3.17;;;3.20;99.90;;;;;;5036830;28;20071;-78
2023/01/19 01:10:14;;;;;;;8.55;3.60;;;3.30;99.90;;;;;;5020240;28;20041;-78
2023/01/19 01:12:40;;;;;;;9.18;3.55;;;3.20;99.90;;;;;;5054509;28;20407;-78
2023/01/19 01:15:09;;;;;;;6.63;3.17;;;3.20;99.90;;;;;;5052439;28;20060;-79
2023/01/19 01:17:34;;;;;;;7.03;3.17;;;3.10;99.90;;;;;;5016816;28;20394;-78
2023/01/19 01:20:00;;;;;;;9.10;2.58;;;4.70;99.90;;;;;;5046595;28;20052;-79
2023/01/19 01:22:26;;;;;;;6.70;2.83;;;3.70;99.90;;;;;;5035311;28;20061;-76
2023/01/19 01:24:52;;;;;;;6.75;2.70;;;4.60;99.90;;;;;;5021378;28;20128;-78
2023/01/19 01:27:17;;;;;;;7.53;2.45;;;5.00;99.90;;;;;;5016661;28;20041;-78
2023/01/19 01:29:45;;;;;;;5.90;2.70;;;3.20;99.90;;;;;;5005175;28;20041;-78
2023/01/19 01:32:12;;;;;;;4.35;2.20;;;3.20;99.90;;;;;;5035923;28;20073;-78
2023/01/19 01:34:38;;;;;;;4.55;1.90;;;3.30;99.90;;;;;;5024015;28;20133;-78
2023/01/19 01:37:07;;;;;;;6.07;1.73;;;3.40;99.90;;;;;;5048657;28;20057;-78
2023/01/19 01:39:33;;;;;;;4.13;1.80;;;3.10;99.90;;;;;;5016868;28;20048;-79
2023/01/19 01:41:59;;;;;;;5.32;1.80;;;3.40;99.90;;;;;;5018021;28;20030;-78
2023/01/19 01:44:49;;;;;;;6.63;1.90;;;3.30;99.90;;;;;;5044012;28;20071;-78
2023/01/19 01:47:37;;;;;;;7.03;1.83;;;3.30;99.90;;;;;;5016347;28;20037;-78
2023/01/19 01:50:17;;;;;;;4.50;1.75;;;3.40;99.90;;;;;;4999738;28;20050;-78
2023/01/19 01:52:47;;;;;;;6.32;1.98;;;3.40;99.90;;;;;;5033433;28;20494;-78
2023/01/19 01:55:15;;;;;;;10.00;1.75;;;3.40;99.90;;;;;;5033521;28;20048;-78
2023/01/19 01:57:48;;;;;;;4.55;1.90;;;4.60;99.90;;;;;;5016104;28;20455;-78
2023/01/19 02:00:15;;;;;;;4.47;2.08;;;4.30;99.90;;;;;;5039859;28;20457;-78
2023/01/19 02:02:50;;;;;;;5.13;2.47;;;2.00;99.90;;;;;;5053762;28;20386;-78
2023/01/19 02:05:21;;;;;;;4.90;2.22;;;3.50;99.90;;;;;;5053244;28;20053;-78
2023/01/19 02:13:43;;;;;;;6.85;3.15;;;3.40;99.90;;;;;;5031373;28;20387;-78
2023/01/19 02:16:10;;;;;;;6.18;3.38;;;4.90;99.90;;;;;;5000500;28;20080;-78
2023/01/19 02:18:36;;;;;;;10.23;4.70;;;3.30;99.90;;;;;;5015421;28;20611;-79
2023/01/19 02:21:13;;;;;;;6.28;3.65;;;3.30;99.90;;;;;;5051588;28;20037;-78
2023/01/19 02:23:46;;;;;;;5.25;3.58;;;5.00;99.90;;;;;;5024192;28;20048;-78
2023/01/19 02:26:17;;;;;;;6.45;3.85;;;3.20;99.90;;;;;;5015708;28;20406;-78
2023/01/19 02:28:47;;;;;;;10.27;4.00;;;3.30;99.90;;;;;;5029955;28;20045;-78
2023/01/19 02:31:14;;;;;;;6.10;3.47;;;3.20;99.90;;;;;;5016656;28;20541;-78
2023/01/19 02:33:40;;;;;;;9.95;4.25;;;3.10;99.90;;;;;;5032799;28;20042;-78
2023/01/19 02:36:09;;;;;;;7.65;4.20;;;3.10;99.90;;;;;;5009585;28;20059;-78
2023/01/19 02:38:37;;;;;;;9.55;4.40;;;3.10;99.90;;;;;;5005816;28;20042;-78
2023/01/19 02:41:06;;;;;;;6.70;4.70;;;3.10;99.90;;;;;;5053038;28;20053;-78
2023/01/19 02:43:32;;;;;;;9.75;4.70;;;3.00;99.90;;;;;;5008673;28;20489;-79
2023/01/19 02:45:58;;;;;;;6.75;3.83;;;3.00;99.90;;;;;;4998910;28;20060;-78
2023/01/19 02:48:24;;;;;;;9.40;4.32;;;3.00;99.90;;;;;;5015087;28;20037;-79
2023/01/19 02:50:53;;;;;;;6.22;4.07;;;3.10;99.90;;;;;;4998874;28;20352;-79
2023/01/19 02:53:25;;;;;;;6.65;4.20;;;3.00;99.90;;;;;;5034725;28;20045;-79
2023/01/19 02:56:29;;;;;;;9.73;4.40;;;3.00;99.90;;;;;;5034937;28;20045;-78
2023/01/19 02:59:04;;;;;;;7.53;4.13;;;3.00;99.90;;;;;;5032003;28;20445;-79
2023/01/19 03:02:13;;;;;;;6.38;4.18;;;3.00;99.90;;;;;;5052748;28;20142;-78
2023/01/19 03:04:57;;;;;;;6.70;4.57;;;3.00;99.90;;;;;;5052348;28;20498;-78
2023/01/19 03:07:45;;;;;;;6.65;4.30;;;2.90;99.90;;;;;;5034920;28;20489;-79
2023/01/19 03:10:19;;;;;;;7.70;4.53;;;3.00;99.90;;;;;;5034579;28;20116;-79
2023/01/19 03:13:01;;;;;;;6.38;4.20;;;3.00;99.90;;;;;;5034794;28;20374;-78
2023/01/19 03:15:47;;;;;;;6.18;4.20;;;3.00;99.90;;;;;;5029820;28;20068;-78
2023/01/19 03:18:14;;;;;;;7.33;4.57;;;3.00;99.90;;;;;;5013856;28;20393;-78
2023/01/19 03:20:42;;;;;;;6.78;4.75;;;2.70;99.90;;;;;;5032632;28;20382;-78
2023/01/19 03:23:11;;;;;;;9.35;4.97;;;3.40;99.90;;;;;;5032626;28;20041;-78
2023/01/19 03:25:42;;;;;;;7.63;4.22;;;2.90;99.90;;;;;;5014652;28;20038;-79
2023/01/19 03:28:08;;;;;;;8.32;4.80;;;4.60;99.90;;;;;;5026173;28;20405;-79
2023/01/19 03:30:38;;;;;;;9.20;5.03;;;4.60;99.90;;;;;;5034046;28;20132;-78
2023/01/19 03:33:10;;;;;;;7.03;4.63;;;2.90;99.90;;;;;;5033951;28;20072;-78
2023/01/19 03:35:42;;;;;;;8.68;4.80;;;3.30;99.90;;;;;;5033059;28;20127;-78
2023/01/19 03:38:13;;;;;;;8.38;4.88;;;4.60;99.90;;;;;;5033549;28;20037;-78
2023/01/19 03:40:40;;;;;;;9.50;4.82;;;2.90;99.90;;;;;;5044749;28;20108;-81
2023/01/19 03:43:07;;;;;;;10.82;5.70;;;2.90;99.90;;;;;;5014818;28;20562;-78
2023/01/19 03:45:34;;;;;;;8.75;5.15;;;2.90;99.90;;;;;;5018324;28;20083;-78
2023/01/19 03:48:00;;;;;;;9.32;5.20;;;2.90;99.90;;;;;;5024550;28;20549;-78
2023/01/19 03:50:28;;;;;;;9.50;5.47;;;2.90;99.90;;;;;;5037957;28;20520;-78
2023/01/19 03:53:00;;;;;;;9.32;5.25;;;2.90;99.90;;;;;;5037260;28;20064;-77
2023/01/19 03:55:26;;;;;;;9.90;5.75;;;2.90;99.90;;;;;;5037421;28;20132;-78
2023/01/19 03:57:51;;;;;;;10.88;5.45;;;3.60;99.90;;;;;;5042421;28;20205;-78
2023/01/19 04:00:17;;;;;;;9.88;5.65;;;2.90;99.90;;;;;;5002837;28;20045;-79
2023/01/19 04:02:43;;;;;;;10.15;5.38;;;3.00;99.90;;;;;;5008242;28;20079;-79
2023/01/19 04:05:08;;;;;;;9.25;5.03;;;4.70;99.90;;;;;;5036126;28;20090;-78
2023/01/19 04:07:34;;;;;;;9.45;5.32;;;3.00;99.90;;;;;;5029724;28;20037;-78
2023/01/19 04:10:00;;;;;;;7.20;4.50;;;2.90;99.90;;;;;;5018661;28;20486;-78
2023/01/19 04:12:25;;;;;;;8.70;5.47;;;3.00;99.90;;;;;;5035364;28;20068;-79
2023/01/19 04:14:51;;;;;;;9.60;5.20;;;3.00;99.90;;;;;;5018304;28;20081;-78
2023/01/19 04:17:16;;;;;;;8.82;5.15;;;2.90;99.90;;;;;;5027839;28;20041;-78
2023/01/19 04:19:42;;;;;;;9.35;4.90;;;3.70;99.90;;;;;;5043046;28;20092;-78
2023/01/19 04:22:09;;;;;;;7.88;4.35;;;4.20;99.90;;;;;;5016777;28;20056;-79
2023/01/19 04:24:34;;;;;;;10.48;5.22;;;2.90;99.90;;;;;;5000018;28;20540;-79
2023/01/19 04:27:00;;;;;;;11.30;5.35;;;2.90;99.90;;;;;;5016178;28;20041;-78
2023/01/19 04:29:26;;;;;;;8.90;5.05;;;2.90;99.90;;;;;;5033954;28;20045;-79
2023/01/19 04:31:51;;;;;;;8.60;5.22;;;3.80;99.90;;;;;;5016020;28;20041;-78
2023/01/19 04:34:17;;;;;;;9.57;5.38;;;2.90;99.90;;;;;;5014358;28;20095;-78
2023/01/19 04:36:44;;;;;;;10.23;5.18;;;2.80;99.90;;;;;;4999914;28;20367;-79
2023/01/19 04:39:10;;;;;;;11.45;6.03;;;2.90;99.90;;;;;;5037957;28;20387;-79
2023/01/19 04:41:36;;;;;;;9.15;5.20;;;2.80;99.90;;;;;;5034525;28;20061;-81
2023/01/19 04:44:02;;;;;;;11.27;5.50;;;2.90;99.90;;;;;;5029908;28;20044;-79
2023/01/19 04:46:27;;;;;;;9.88;5.05;;;2.90;99.90;;;;;;5054047;28;20416;-79
2023/01/19 04:48:53;;;;;;;8.75;5.28;;;2.80;99.90;;;;;;5022127;28;20121;-79
2023/01/19 04:51:19;;;;;;;9.10;5.18;;;2.80;99.90;;;;;;5000020;28;20038;-79
2023/01/19 04:53:44;;;;;;;11.32;4.95;;;2.80;99.90;;;;;;5021271;28;20045;-79
2023/01/19 04:56:11;;;;;;;9.43;5.10;;;2.70;99.90;;;;;;5051044;28;20084;-79
2023/01/19 04:58:36;;;;;;;9.52;4.90;;;3.80;99.90;;;;;;5035825;28;20131;-79
2023/01/19 05:01:07;;;;;;;10.07;4.50;;;2.70;99.90;;;;;;5019603;28;20132;-79
2023/01/19 05:03:33;;;;;;;7.35;4.70;;;4.20;99.90;;;;;;5035856;28;20091;-79
2023/01/19 05:05:58;;;;;;;8.95;4.40;;;2.80;99.90;;;;;;5053702;28;20048;-79
2023/01/19 05:08:24;;;;;;;8.63;4.32;;;2.90;99.90;;;;;;5053890;28;20037;-79
2023/01/19 05:10:50;;;;;;;8.57;4.00;;;4.10;99.90;;;;;;5053933;28;20048;-79
2023/01/19 05:13:16;;;;;;;7.63;3.75;;;3.40;99.90;;;;;;5015192;28;1103740;-79
2023/01/19 05:15:42;;;;;;;8.45;3.80;;;2.90;99.90;;;;;;5048046;28;20095;-79
2023/01/19 05:18:07;;;;;;;9.80;3.88;;;3.00;99.90;;;;;;5034271;28;20124;-79
2023/01/19 05:20:33;;;;;;;8.70;3.55;;;4.10;99.90;;;;;;5012585;28;20608;-80
2023/01/19 05:22:58;;;;;;;8.98;3.58;;;3.00;99.90;;;;;;5021852;28;20397;-79
2023/01/19 05:25:24;;;;;;;13.90;3.78;;;3.00;99.90;;;;;;5054045;28;20037;-79
2023/01/19 05:27:50;;;;;;;6.13;3.42;;;2.90;99.90;;;;;;5036042;28;20044;-79
2023/01/19 05:30:16;;;;;;;8.80;3.53;;;2.90;99.90;;;;;;5035931;28;20533;-79
2023/01/19 05:32:42;;;;;;;9.25;3.42;;;3.00;99.90;;;;;;5034423;28;20051;-79
2023/01/19 05:35:08;;;;;;;9.20;3.70;;;3.00;99.90;;;;;;5017945;28;20045;-79
2023/01/19 05:37:34;;;;;;;7.43;3.65;;;3.00;99.90;;;;;;5051272;28;20049;-79
2023/01/19 05:39:59;;;;;;;10.27;3.50;;;3.00;99.90;;;;;;5034688;28;20049;-81
2023/01/19 05:42:25;;;;;;;10.18;2.67;;;3.00;99.90;;;;;;5037968;28;20076;-80
2023/01/19 05:44:51;;;;;;;9.75;2.60;;;3.00;99.90;;;;;;5035458;28;20499;-80
2023/01/19 05:47:17;;;;;;;5.80;2.53;;;3.10;99.90;;;;;;5017383;28;20095;-80
2023/01/19 05:49:42;;;;;;;3.28;1.80;;;2.40;99.90;;;;;;5012533;28;20116;-79
2023/01/19 05:52:08;;;;;;;6.28;1.60;;;3.10;99.90;;;;;;5033902;28;20033;-80
2023/01/19 05:54:34;;;;;;;6.03;1.70;;;3.20;99.90;;;;;;5050335;28;20060;-79
2023/01/19 05:57:01;;;;;;;5.32;1.70;;;3.20;99.90;;;;;;5035606;28;20112;-79
2023/01/19 05:59:26;;;;;;;5.85;1.80;;;3.70;99.90;;;;;;5034740;28;20090;-80
2023/01/19 06:01:53;;;;;;;5.85;2.00;;;3.20;99.90;;;;;;5035067;28;20045;-80
2023/01/19 06:04:19;;;;;;;4.90;1.80;;;3.20;99.90;;;;;;5017797;28;20045;-79
2023/01/19 06:06:49;;;;;;;3.95;1.50;;;3.10;99.90;;;;;;5052343;28;20523;-80
2023/01/19 06:09:16;;;;;;;6.50;1.60;;;3.10;99.90;;;;;;5051459;28;20044;-79
2023/01/19 06:11:43;;;;;;;5.50;1.55;;;3.10;99.90;;;;;;5052892;28;20041;-79
2023/01/19 06:14:10;;;;;;;4.55;1.60;;;3.00;99.90;;;;;;5050711;28;20057;-80
2023/01/19 06:16:35;;;;;;;4.15;1.50;;;3.00;99.90;;;;;;5039833;28;20064;-80
2023/01/19 06:19:01;;;;;;;7.15;1.60;;;3.00;99.90;;;;;;5015279;28;20049;-79
2023/01/19 06:21:27;;;;;;;5.70;1.90;;;3.20;99.90;;;;;;5027095;28;20037;-80
2023/01/19 06:23:52;;;;;;;8.25;1.65;;;3.20;99.90;;;;;;5033421;28;20056;-80
2023/01/19 06:26:18;;;;;;;5.15;1.92;;;3.10;99.90;;;;;;5051389;28;20489;-80
2023/01/19 06:28:44;;;;;;;4.40;1.55;;;4.00;99.90;;;;;;5050137;28;20051;-79
2023/01/19 06:31:09;;;;;;;5.95;1.55;;;3.10;99.90;;;;;;5043431;28;20087;-80
2023/01/19 06:33:35;;;;;;;5.95;1.85;;;4.30;99.90;;;;;;5051504;28;20080;-80
2023/01/19 06:36:01;;;;;;;4.30;1.70;;;3.70;99.90;;;;;;5041936;28;20041;-79
2023/01/19 06:38:27;;;;;;;7.05;1.63;;;4.20;99.90;;;;;;5015343;28;20128;-80
2023/01/19 06:40:57;;;;;;;3.53;1.40;;;3.20;99.90;;;;;;5032748;28;20037;-80
2023/01/19 06:43:23;;;;;;;3.60;1.60;;;3.20;99.90;;;;;;5020060;28;20048;-79
2023/01/19 06:45:49;;;;;;;7.03;1.63;;;3.20;99.90;;;;;;5041096;28;20041;-79
2023/01/19 06:48:15;;;;;;;8.48;1.58;;;4.10;99.90;;;;;;5032332;28;20042;-78
2023/01/19 06:50:40;;;;;;;4.88;1.85;;;4.30;99.90;;;;;;5041388;28;20509;-79
2023/01/19 06:53:06;;;;;;;6.70;2.00;;;3.00;99.90;;;;;;5049097;28;20067;-78
2023/01/19 06:55:34;;;;;;;8.38;2.13;;;4.30;99.90;;;;;;5034865;28;20389;-79
2023/01/19 06:58:00;;;;;;;10.60;2.03;;;3.00;99.90;;;;;;5051285;28;20052;-79
2023/01/19 07:00:25;;;;;;;9.27;2.10;;;3.80;99.90;;;;;;5051194;28;20132;-79
2023/01/19 07:02:51;;;;;;;9.63;2.10;;;3.00;99.90;;;;;;5051337;28;20036;-78
2023/01/19 07:05:17;;;;;;;9.45;2.00;;;3.10;99.90;;;;;;5050969;28;20100;-79
2023/01/19 07:07:44;;;;;;;7.43;2.00;;;3.10;99.90;;;;;;5050679;28;20449;-79
2023/01/19 07:10:11;;;;;;;9.55;2.13;;;3.10;99.90;;;;;;5050083;28;20037;-79
2023/01/19 07:12:38;;;;;;;10.02;1.80;;;3.10;99.90;;;;;;5050701;28;20053;-79
2023/01/19 07:15:05;;;;;;;7.72;1.92;;;3.10;99.90;;;;;;5034557;28;20404;-79
2023/01/19 07:17:30;;;;;;;10.20;2.10;;;3.20;99.90;;;;;;5050891;28;20040;-79
2023/01/19 07:19:56;;;;;;;10.68;1.80;;;4.60;99.90;;;;;;5036335;28;20404;-79
2023/01/19 07:22:21;;;;;;;9.93;1.70;;;4.40;99.90;;;;;;5035702;28;20463;-79
2023/01/19 07:24:47;;;;;;;9.95;2.25;;;3.10;99.90;;;;;;5025253;28;20521;-79
2023/01/19 07:27:15;;;;;;;7.95;1.90;;;3.10;99.90;;;;;;5037936;28;20041;-79
2023/01/19 07:29:41;;;;;;;11.95;1.80;;;4.50;99.90;;;;;;5021778;28;20037;-79
2023/01/19 07:32:06;;;;;;;8.35;2.00;;;3.30;99.90;;;;;;5038336;28;20045;-79
2023/01/19 07:34:33;;;;;;;11.23;2.20;;;3.40;99.90;;;;;;5032758;28;20044;-79
2023/01/19 07:36:58;;;;;;;8.70;2.38;;;3.20;99.90;;;;;;5038271;28;20097;-80
2023/01/19 07:39:24;;;;;;;11.52;2.17;;;3.30;99.90;;;;;;5046500;28;20120;-79
2023/01/19 07:41:50;;;;;;;16.08;3.05;;;3.30;99.90;;;;;;5036390;28;20033;-79
2023/01/19 07:44:15;;;;;;;16.98;3.00;;;3.50;99.90;;;;;;5035559;28;20131;-79
2023/01/19 07:46:42;;;;;;;13.10;3.05;;;3.50;99.90;;;;;;5018077;28;20081;-79
2023/01/19 07:49:08;;;;;;;7.60;2.28;;;3.60;99.90;;;;;;5034023;28;20049;-79
2023/01/19 07:51:35;;;;;;;12.30;3.00;;;5.20;99.90;;;;;;5022228;28;20131;-79
2023/01/19 07:54:00;;;;;;;10.48;2.55;;;3.70;99.90;;;;;;5036393;28;20127;-79
2023/01/19 07:56:28;;;;;;;11.55;2.50;;;3.80;99.90;;;;;;5055409;28;20183;-79
2023/01/19 07:58:54;;;;;;;14.70;2.80;;;3.80;99.90;;;;;;5020567;28;20119;-79
2023/01/19 08:01:20;;;;;;;11.57;2.38;;;4.80;99.90;;;;;;5038188;28;20044;-80
2023/01/19 08:03:49;;;;;;;13.38;2.40;;;5.10;99.90;;;;;;5055373;28;20095;-80
2023/01/19 08:06:20;;;;;;;10.55;2.00;;;3.90;99.90;;;;;;5037883;28;20389;-81
2023/01/19 08:08:46;;;;;;;10.82;1.95;;;3.90;99.90;;;;;;5037588;28;20365;-81
2023/01/19 08:11:11;;;;;;;14.40;2.50;;;4.10;99.90;;;;;;5018024;28;20056;-80
2023/01/19 08:13:37;;;;;;;8.07;2.00;;;5.00;99.90;;;;;;5035168;28;20382;-80
2023/01/19 08:16:03;;;;;;;9.10;1.80;;;4.10;99.90;;;;;;5022125;28;20033;-80
2023/01/19 08:18:29;;;;;;;11.00;2.22;;;4.20;99.90;;;;;;5042682;28;20544;-81
2023/01/19 08:20:57;;;;;;;10.30;2.33;;;4.20;99.90;;;;;;5001381;28;20045;-81
2023/01/19 08:23:22;;;;;;;8.25;2.10;;;4.20;99.90;;;;;;5054267;28;20366;-80
2023/01/19 08:25:48;;;;;;;7.10;2.03;;;5.00;99.90;;;;;;5053767;28;20182;-80
2023/01/19 08:28:15;;;;;;;13.23;2.25;;;5.00;99.90;;;;;;5019664;28;20098;-80
2023/01/19 08:30:46;;;;;;;10.05;2.50;;;4.90;99.90;;;;;;5037058;28;20041;-81
2023/01/19 08:33:12;;;;;;;11.02;3.00;;;4.40;99.90;;;;;;5036887;28;20053;-81
2023/01/19 08:35:46;;;;;;;12.80;2.45;;;4.50;99.90;;;;;;5020577;28;20114;-81
2023/01/19 08:38:11;;;;;;;8.93;2.22;;;4.50;99.90;;;;;;5054897;28;20051;-79
2023/01/19 08:40:39;;;;;;;13.57;2.60;;;6.40;99.90;;;;;;5025392;28;20053;-80
2023/01/19 08:43:13;;;;;;;9.10;2.42;;;4.70;99.90;;;;;;5016779;28;20128;-79
2023/01/19 08:45:45;;;;;;;15.43;2.78;;;4.70;99.90;;;;;;5017033;28;20508;-79
2023/01/19 08:48:12;;;;;;;11.68;2.67;;;6.10;99.90;;;;;;5041925;28;20063;-81
2023/01/19 08:50:38;;;;;;;13.50;2.40;;;5.00;99.90;;;;;;5028891;28;20440;-81
2023/01/19 08:53:05;;;;;;;15.77;2.42;;;;;;;;;;5018954;28;20076;-78
2023/01/19 08:55:32;;;;;;;15.20;2.50;;;;;;;;;;5054554;28;20052;-78
2023/01/19 08:57:59;;;;;;;10.43;2.20;;;;;;;;;;5036438;28;20048;-78
2023/01/19 09:00:26;;;;;;;14.48;2.40;;;;;;;;;;5017979;28;20045;-80
2023/01/19 09:02:52;;;;;;;15.32;3.30;;;;;;;;;;4997813;28;20049;-73
2023/01/19 09:05:19;;;;;;;10.68;2.97;;;;;;;;;;5036693;28;20037;-73
2023/01/19 09:07:50;;;;;;;13.60;2.88;;;;;;;;;;5050157;28;20061;-74
2023/01/19 09:10:17;;;;;;;15.77;2.78;;;;;;;;;;5053536;28;20378;-73
2023/01/19 09:12:43;;;;;;;15.23;2.67;;;;;;;;;;5024939;28;20049;-74
2023/01/19 09:15:12;;;;;;;16.55;3.08;;;;;;;;;;5028824;28;20053;-74
2023/01/19 09:17:39;;;;;;;13.13;3.22;;;;;;;;;;5026795;28;20048;-72
2023/01/19 09:20:06;;;;;;;19.77;3.78;;;;;;;;;;5052257;28;20525;-73
2023/01/19 09:22:32;;;;;;;14.65;3.05;;;;;;;;;;5031114;28;20047;-73
2023/01/19 09:24:59;;;;;;;19.38;2.95;;;;;;;;;;5033144;28;20044;-73
2023/01/19 09:27:25;;;;;;;14.88;2.80;;;;;;;;;;5053925;28;20045;-73
2023/01/19 09:29:53;;;;;;;10.40;2.30;;;;;;;;;;5053622;28;20041;-72
2023/01/19 09:32:20;;;;;;;15.88;3.13;;;6.50;99.90;;;;;;5053553;28;20045;-75
2023/01/19 09:34:46;;;;;;;11.48;2.38;;;5.40;99.90;;;;;;5019251;28;20110;-77
2023/01/19 09:37:12;;;;;;;9.98;2.40;;;5.80;99.90;;;;;;5053830;28;20470;-77
2023/01/19 09:39:37;;;;;;;15.23;3.35;;;;;;;;;;5053688;28;20435;-77
2023/01/19 09:42:24;;;;;;;8.88;2.58;;;;;;;;;;5035397;28;20037;-75
2023/01/19 09:44:52;;;;;;;;;;;;;;;;;;5024480;28;20059;-74
2023/01/19 09:47:20;;;;;;;12.02;3.05;;;;;;;;;;5023881;28;19921;-74
2023/01/19 09:49:49;;;;;;;11.80;2.80;;;;;;;;;;5014618;28;20412;-74
2023/01/19 09:52:17;;;;;;;13.70;2.85;;;;;;;;;;5049536;28;20044;-75
2023/01/19 09:54:46;;;;;;;7.57;2.40;;;;;;;;;;5048742;28;20481;-75
2023/01/19 09:57:13;;;;;;;10.65;2.85;;;;;;;;;;5018494;28;20048;-74
2023/01/19 09:59:42;;;;;;;9.02;2.30;;;;;;;;;;5030808;28;20041;-75
2023/01/19 10:02:27;;;;;;;7.75;2.75;;;;;;;;;;5036692;28;20053;-74
2023/01/19 10:05:03;;;;;;;15.63;3.53;;;;;;;;;;5032985;28;20049;-74
2023/01/19 10:07:52;;;;;;;13.25;3.58;;;;;;;;;;5033315;28;20048;-73
2023/01/19 10:10:21;;;;;;;9.73;2.97;;;;;;;;;;5014121;28;20107;-73
2023/01/19 10:13:05;;;;;;;11.73;2.65;;;;;;;;;;5013184;28;20490;-74
2023/01/19 10:15:51;;;;;;;11.00;2.70;;;;;;;;;;5000213;28;20382;-74
2023/01/19 10:18:33;;;;;;;10.73;2.47;;;;;;;;;;5033225;28;20052;-75
2023/01/19 10:21:02;;;;;;;13.57;2.83;;;;;;;;;;4999250;28;20425;-74
2023/01/19 10:23:37;;;;;;;8.05;2.67;;;;;;;;;;5034916;28;20033;-74
2023/01/19 10:26:07;;;;;;;12.40;2.97;;;;;;;;;;5034539;28;20049;-75
2023/01/19 10:28:35;;;;;;;16.35;3.15;;;;;;;;;;5034899;28;20129;-75
2023/01/19 10:31:03;;;;;;;10.15;2.78;;;;;;;;;;5020446;28;20080;-74
2023/01/19 10:33:29;;;;;;;12.52;3.00;;;;;;;;;;5014864;28;20054;-75
2023/01/19 10:35:55;;;;;;;12.18;2.80;;;;;;;;;;4998851;28;20095;-74
2023/01/19 10:38:22;;;;;;;11.27;2.83;;;;;;;;;;5033836;28;20045;-74
2023/01/19 10:40:54;;;;;;;10.43;2.53;;;;;;;;;;5033941;28;20087;-74
2023/01/19 10:43:39;;;;;;;10.45;2.58;;;;;;;;;;5013521;28;20049;-76
2023/01/19 10:46:06;;;;;;;10.45;2.55;;;;;;;;;;5015292;28;20080;-77
2023/01/19 10:48:41;;;;;;;7.80;2.40;;;;;;;;;;5005193;28;20044;-76
2023/01/19 10:51:07;;;;;;;;;;;5.70;99.90;;;;;;5032998;28;20048;-75
2023/01/19 10:53:33;;;;;;;6.05;2.10;;;18.40;97.20;;;;;;5021409;28;19921;-75
2023/01/19 10:56:13;;;;;;;10.57;2.42;;;18.70;93.60;;;;;;5042856;28;20116;-74
2023/01/19 10:58:39;;;;;;;10.80;2.38;;;18.90;91.90;;;;;;5013421;28;20056;-75
2023/01/19 11:01:13;;;;;;;8.20;2.13;;;;;;;;;;5014875;28;20041;-74
2023/01/19 11:03:38;;;;;;;10.10;2.30;;;19.10;92.30;;;;;;5014500;28;20072;-75
2023/01/19 11:06:14;;;;;;;7.65;2.63;;;19.00;92.10;;;;;;5033357;28;20210;-75
2023/01/19 11:08:41;;;;;;;9.85;2.55;;;18.80;92.50;;;;;;4998429;28;20401;-75
2023/01/19 11:11:08;;;;;;;10.10;1.98;;;19.60;92.80;;;;;;5023253;28;20040;-76
2023/01/19 11:13:38;;;;;;;6.82;2.17;;;20.20;91.80;;;;;;5031755;28;20397;-74
2023/01/19 11:16:24;;;;;;;8.30;2.50;;;20.00;90.70;;;;;;5048914;28;20057;-73
2023/01/19 11:18:55;;;;;;;11.45;2.85;;;19.80;91.20;;;;;;5048965;28;20114;-74
2023/01/19 11:21:26;;;;;;;10.55;2.80;;;19.70;91.50;;;;;;5029605;28;20092;-73
2023/01/19 11:23:55;;;;;;;10.45;2.85;;;19.60;91.50;;;;;;5049421;28;20511;-73
2023/01/19 11:26:30;;;;;;;9.88;2.53;;;19.10;92.00;;;;;;5048942;28;20061;-73
2023/01/19 11:29:01;;;;;;;8.15;2.33;;;18.80;92.20;;;;;;5031526;28;20350;-73
2023/01/19 11:31:26;;;;;;;9.65;2.40;;;19.00;90.50;;;;;;5031145;28;20126;-75
2023/01/19 11:33:54;;;;;;;7.50;1.95;;;19.80;90.60;;;;;;5013469;28;20489;-75
2023/01/19 11:36:21;;;;;;;9.25;2.42;;;21.10;86.10;;;;;;5014415;28;20136;-75
2023/01/19 11:38:53;;;;;;;10.20;2.47;;;21.40;83.60;;;;;;5011920;28;20129;-75
2023/01/19 11:41:34;;;;;;;10.02;2.40;;;20.90;85.10;;;;;;5033491;28;20045;-75
2023/01/19 11:44:18;;;;;;;9.23;2.30;;;20.00;83.40;;;;;;5050929;28;20045;-74
2023/01/19 11:46:48;;;;;;;8.88;2.13;;;20.40;83.50;;;;;;5034419;28;20439;-74
2023/01/19 11:49:37;;;;;;;8.60;2.28;;;20.50;81.90;;;;;;5017354;28;20045;-74
2023/01/19 11:52:31;;;;;;;11.98;2.45;;;19.50;83.70;;;;;;5031393;28;20136;-74
2023/01/19 11:55:11;;;;;;;9.20;2.20;;;18.00;84.40;;;;;;5031595;28;20038;-74
2023/01/19 11:57:42;;;;;;;9.73;2.58;;;17.20;85.90;;;;;;5030990;28;20132;-74
2023/01/19 12:00:41;;;;;;;7.45;2.20;;;17.10;86.70;;;;;;5014632;28;20044;-74
2023/01/19 12:03:42;;;;;;;7.28;2.00;;;18.10;86.80;;;;;;5012164;28;20049;-74
2023/01/19 12:06:12;;;;;;;8.00;1.90;;;19.40;82.70;;;;;;5022788;28;20107;-74
2023/01/19 12:08:54;;;;;;;7.57;2.10;;;20.70;78.80;;;;;;5017532;28;20039;-74
2023/01/19 12:11:25;;;;;;;9.05;2.08;;;21.80;77.50;;;;;;5017988;28;20071;-74
2023/01/19 12:13:54;;;;;;;8.48;1.95;;;22.60;74.80;;;;;;5033652;28;20391;-75
2023/01/19 12:16:22;;;;;;;8.05;1.88;;;22.80;74.70;;;;;;5017697;28;20103;-74
2023/01/19 12:19:15;;;;;;;7.85;2.40;;;23.50;75.40;;;;;;5033460;28;20045;-74
2023/01/19 12:21:41;;;;;;;5.38;1.60;;;24.10;72.20;;;;;;5024667;28;20140;-75
2023/01/19 12:24:15;;;;;;;10.20;2.28;;;23.80;69.80;;;;;;5034884;28;20120;-74
2023/01/19 12:26:54;;;;;;;8.75;1.80;;;22.50;71.00;;;;;;5017520;28;20042;-75
2023/01/19 12:29:23;;;;;;;7.95;1.85;;;22.20;72.00;;;;;;5034980;28;20082;-75
2023/01/19 12:32:17;;;;;;;5.18;1.50;;;22.30;72.00;;;;;;5017527;28;20512;-75
2023/01/19 12:34:47;;;;;;;8.48;1.83;;;21.50;71.30;;;;;;5000570;28;20045;-75
2023/01/19 12:37:24;;;;;;;10.48;1.90;;;20.60;73.00;;;;;;5017156;28;20107;-75
2023/01/19 12:39:50;;;;;;;10.43;1.95;;;21.30;72.20;;;;;;5034747;28;20052;-75
2023/01/19 12:42:17;;;;;;;7.75;1.70;;;21.90;72.50;;;;;;5016912;28;20047;-75
2023/01/19 12:44:44;;;;;;;9.55;1.85;;;21.90;71.40;;;;;;5000523;28;20045;-75
2023/01/19 12:47:11;;;;;;;4.22;1.40;;;21.90;69.30;;;;;;5034765;28;20038;-75
2023/01/19 12:49:37;;;;;;;4.35;1.50;;;21.90;68.90;;;;;;5034424;28;20731;-75
2023/01/19 12:52:39;;;;;;;8.18;1.70;;;21.90;68.90;;;;;;5034850;28;20116;-75
2023/01/19 12:55:13;;;;;;;7.03;1.55;;;22.80;68.40;;;;;;5033517;28;20559;-75
2023/01/19 12:57:40;;;;;;;5.43;1.77;;;23.60;65.80;;;;;;5036288;28;20045;-75
2023/01/19 13:00:21;;;;;;;5.00;1.30;;;23.40;63.00;;;;;;5020068;28;20041;-76
2023/01/19 13:02:52;;;;;;;5.88;1.50;;;22.40;63.70;;;;;;5036550;28;20076;-76
2023/01/19 13:05:24;;;;;;;7.78;1.52;;;20.90;64.40;;;;;;5017511;28;20132;-76
2023/01/19 13:08:05;;;;;;;6.35;1.92;;;19.50;66.60;;;;;;5034169;28;20128;-76
2023/01/19 13:10:50;;;;;;;6.05;1.63;;;;;;;;;;5035981;28;20052;-76
2023/01/19 13:13:17;;;;;;;6.13;1.70;;;;;;;;;;5031807;28;20053;-74
2023/01/19 13:15:43;;;;;;;6.15;1.65;;;;;;;;;;5041363;28;20049;-74
2023/01/19 13:18:10;;;;;;;7.15;1.67;;;;;;;;;;5068338;28;20539;-73
2023/01/19 13:20:48;;;;;;;7.13;1.75;;;;;;;;;;5045971;28;20049;-74
2023/01/19 13:23:22;;;;;;;7.30;1.80;;;;;;;;;;5053821;28;20136;-75
2023/01/19 13:25:50;;;;;;;6.05;1.85;;;;;;;;;;5053623;28;20044;-73